Bow Jubail — LAYZ4 — position and weather

sailwx.info

Track history (hours):
 
Tides and Currents Weather Stations Pressure Air Temp Water Temp Dewpoint Dewpoint Depression Visibility Wind Speed Wind Dir Waves Ship Positions

Bow Jubail

Last reported at 2017-Sep-18 14:16 UTC. Time now 2017-Sep-19 15:15 UTC.
Position N 29°23' W 094°53'.

Length 183 m; draft 10.1 m.

Type: Ship (hazmat cat B). MMSI: 259757000.

Date/timePositionNaut miles runAvg speedWind from/ knotsBaromVisibWave heightAir tempDewpointWater temp
2017-Sep-18 14:16N 29°23' W 094°53'3 7.4
2017-Sep-18 13:48N 29°22' W 094°49'3 0.1
2017-Sep-16 23:04N 29°23' W 094°53'0 3.7
2017-Sep-16 23:00N 29°23' W 094°53'4 8.0
2017-Sep-16 22:29N 29°21' W 094°48'17 1.0
2017-Sep-16 06:22N 29°10' W 094°34'0 1.2
2017-Sep-16 06:00N 29°10' W 094°33'3 5.6
2017-Sep-16 05:30N 29°08' W 094°31'4 7.6
2017-Sep-16 05:00N 29°06' W 094°28'3 6.5
2017-Sep-16 04:29N 29°03' W 094°26'6 8.0
2017-Sep-16 03:44N 28°57' W 094°24'411.6
2017-Sep-16 03:24N 28°53' W 094°24'  
2017-Sep-09 08:50N 29°22' W 094°48'513.6
2017-Sep-09 08:30N 29°26' W 094°50'612.2
2017-Sep-09 08:00N 29°32' W 094°53'611.5
2017-Sep-09 07:30N 29°36' W 094°57'3 5.8
2017-Sep-09 07:01N 29°37' W 095°00'1 1.6
2017-Sep-09 06:29N 29°37' W 095°01'0 0.0
2017-Sep-09 05:59N 29°37' W 095°01'0 0.0
2017-Sep-09 05:29N 29°37' W 095°01'0 0.0
2017-Sep-09 04:59N 29°37' W 095°01'0 0.0
2017-Sep-09 04:29N 29°37' W 095°01'0 0.0
2017-Sep-09 03:59N 29°37' W 095°01'0 0.0
2017-Sep-09 03:29N 29°37' W 095°01'0 0.0
2017-Sep-09 02:56N 29°37' W 095°01'0 0.0
2017-Sep-09 02:29N 29°37' W 095°01'0 0.0
2017-Sep-09 01:59N 29°37' W 095°01'0 0.0
2017-Sep-09 01:29N 29°37' W 095°01'0 0.0
2017-Sep-09 00:59N 29°37' W 095°01'0 0.0
2017-Sep-09 00:29N 29°37' W 095°01'0 0.0
2017-Sep-08 23:59N 29°37' W 095°01'0 0.0
2017-Sep-08 23:29N 29°37' W 095°01'0 0.0
2017-Sep-08 22:59N 29°37' W 095°01'0 0.0
2017-Sep-08 22:29N 29°37' W 095°01'0 0.0
2017-Sep-08 21:59N 29°37' W 095°01'0 0.0
2017-Sep-08 21:29N 29°37' W 095°01'0 0.0
2017-Sep-08 20:59N 29°37' W 095°01'0 0.0
2017-Sep-08 20:29N 29°37' W 095°01'0 0.0
2017-Sep-08 19:59N 29°37' W 095°01'0 0.0
2017-Sep-08 19:29N 29°37' W 095°01'0 0.0
2017-Sep-08 18:59N 29°37' W 095°01'0 0.0
2017-Sep-08 18:29N 29°37' W 095°01'0 0.0
2017-Sep-08 17:59N 29°37' W 095°01'0 0.0
2017-Sep-08 17:29N 29°37' W 095°01'0 0.0
2017-Sep-08 16:59N 29°37' W 095°01'0 0.0
2017-Sep-08 16:29N 29°37' W 095°01'0 0.9
2017-Sep-08 16:00N 29°37' W 095°01'3 6.1
2017-Sep-08 15:31N 29°37' W 094°57'3 6.7
2017-Sep-08 15:00N 29°40' W 094°59'3 5.1
2017-Sep-08 14:30N 29°42' W 095°01'  
Track history (hours):
 
Tides and Currents Weather Stations Pressure Air Temp Water Temp Dewpoint Dewpoint Depression Visibility Wind Speed Wind Dir Waves Ship Positions

Bow Jubail

Last reported at 2017-Sep-18 14:16 UTC. Time now 2017-Sep-19 15:15 UTC.
Position N 29°23' W 094°53'.

Length 183 m; draft 10.1 m.

Type: Ship (hazmat cat B). MMSI: 259757000.

Date/timePositionNaut miles runAvg speedWind from/ knotsBaromVisibWave heightAir tempDewpointWater temp
2017-Sep-18 14:16N 29°23' W 094°53'3 7.4
2017-Sep-18 13:48N 29°22' W 094°49'3 0.1
2017-Sep-16 23:04N 29°23' W 094°53'0 3.7
2017-Sep-16 23:00N 29°23' W 094°53'4 8.0
2017-Sep-16 22:29N 29°21' W 094°48'17 1.0
2017-Sep-16 06:22N 29°10' W 094°34'0 1.2
2017-Sep-16 06:00N 29°10' W 094°33'3 5.6
2017-Sep-16 05:30N 29°08' W 094°31'4 7.6
2017-Sep-16 05:00N 29°06' W 094°28'3 6.5
2017-Sep-16 04:29N 29°03' W 094°26'6 8.0
2017-Sep-16 03:44N 28°57' W 094°24'411.6
2017-Sep-16 03:24N 28°53' W 094°24'  
2017-Sep-09 08:50N 29°22' W 094°48'513.6
2017-Sep-09 08:30N 29°26' W 094°50'612.2
2017-Sep-09 08:00N 29°32' W 094°53'611.5
2017-Sep-09 07:30N 29°36' W 094°57'3 5.8
2017-Sep-09 07:01N 29°37' W 095°00'1 1.6
2017-Sep-09 06:29N 29°37' W 095°01'0 0.0
2017-Sep-09 05:59N 29°37' W 095°01'0 0.0
2017-Sep-09 05:29N 29°37' W 095°01'0 0.0
2017-Sep-09 04:59N 29°37' W 095°01'0 0.0
2017-Sep-09 04:29N 29°37' W 095°01'0 0.0
2017-Sep-09 03:59N 29°37' W 095°01'0 0.0
2017-Sep-09 03:29N 29°37' W 095°01'0 0.0
2017-Sep-09 02:56N 29°37' W 095°01'0 0.0
2017-Sep-09 02:29N 29°37' W 095°01'0 0.0
2017-Sep-09 01:59N 29°37' W 095°01'0 0.0
2017-Sep-09 01:29N 29°37' W 095°01'0 0.0
2017-Sep-09 00:59N 29°37' W 095°01'0 0.0
2017-Sep-09 00:29N 29°37' W 095°01'0 0.0
2017-Sep-08 23:59N 29°37' W 095°01'0 0.0
2017-Sep-08 23:29N 29°37' W 095°01'0 0.0
2017-Sep-08 22:59N 29°37' W 095°01'0 0.0
2017-Sep-08 22:29N 29°37' W 095°01'0 0.0
2017-Sep-08 21:59N 29°37' W 095°01'0 0.0
2017-Sep-08 21:29N 29°37' W 095°01'0 0.0
2017-Sep-08 20:59N 29°37' W 095°01'0 0.0
2017-Sep-08 20:29N 29°37' W 095°01'0 0.0
2017-Sep-08 19:59N 29°37' W 095°01'0 0.0
2017-Sep-08 19:29N 29°37' W 095°01'0 0.0
2017-Sep-08 18:59N 29°37' W 095°01'0 0.0
2017-Sep-08 18:29N 29°37' W 095°01'0 0.0
2017-Sep-08 17:59N 29°37' W 095°01'0 0.0
2017-Sep-08 17:29N 29°37' W 095°01'0 0.0
2017-Sep-08 16:59N 29°37' W 095°01'0 0.0
2017-Sep-08 16:29N 29°37' W 095°01'0 0.9
2017-Sep-08 16:00N 29°37' W 095°01'3 6.1
2017-Sep-08 15:31N 29°37' W 094°57'3 6.7
2017-Sep-08 15:00N 29°40' W 094°59'3 5.1
2017-Sep-08 14:30N 29°42' W 095°01'  

Dump ship's entire track history